AXB228 VOHS-VOMM
Flight info
| Callsign | AXB228 |
|---|---|
| Flight time | N/A |
| Altitude | 35000 |
| Route | BOPRI5 BOPRI V4 MMV |
| Aircraft | B38M/M-SDE1FGHILORVWXY/HB1 |
Departure
| Time | 2026-04-23 05:35 |
|---|---|
| Airport | Rajiv Gandhi International Airport (VOHS) |
Arrival
| Time | N/A |
|---|---|
| Airport | Chennai International Airport (VOMM) |
| Time | Latitude | Longitude | Altitude | Speed | Heading |
|---|---|---|---|---|---|
| 2026-04-23 05:16 | 17.23411 | 78.43031 | 2009 ft | 0 kts | 359° |
| 2026-04-23 05:27 | 17.23412 | 78.43032 | 1984 ft | 0 kts | 24° |
| 2026-04-23 05:27 | 17.23413 | 78.43035 | 1984 ft | 0 kts | 50° |
| 2026-04-23 05:28 | 17.23412 | 78.43053 | 1984 ft | 4 kts | 98° |
| 2026-04-23 05:28 | 17.23401 | 78.43071 | 1982 ft | 5 kts | 133° |
| 2026-04-23 05:28 | 17.23353 | 78.43114 | 1982 ft | 11 kts | 143° |
| 2026-04-23 05:28 | 17.23286 | 78.43159 | 1982 ft | 11 kts | 164° |
| 2026-04-23 05:29 | 17.23207 | 78.43164 | 1983 ft | 12 kts | 179° |
| 2026-04-23 05:29 | 17.23117 | 78.43168 | 1984 ft | 12 kts | 163° |
| 2026-04-23 05:29 | 17.23087 | 78.43220 | 1982 ft | 8 kts | 96° |
| 2026-04-23 05:29 | 17.23089 | 78.43288 | 1981 ft | 11 kts | 86° |
| 2026-04-23 05:30 | 17.23093 | 78.43373 | 1981 ft | 13 kts | 89° |
| 2026-04-23 05:30 | 17.23093 | 78.43470 | 1982 ft | 14 kts | 93° |
| 2026-04-23 05:30 | 17.23090 | 78.43581 | 1982 ft | 17 kts | 90° |
| 2026-04-23 05:30 | 17.23089 | 78.43723 | 1982 ft | 23 kts | 90° |
| 2026-04-23 05:31 | 17.23090 | 78.43909 | 1982 ft | 28 kts | 87° |
| 2026-04-23 05:31 | 17.23102 | 78.44131 | 1983 ft | 33 kts | 86° |
| 2026-04-23 05:31 | 17.23105 | 78.44328 | 1983 ft | 26 kts | 89° |
| 2026-04-23 05:31 | 17.23110 | 78.44520 | 1986 ft | 27 kts | 88° |
| 2026-04-23 05:32 | 17.23116 | 78.44723 | 1984 ft | 29 kts | 89° |
| 2026-04-23 05:32 | 17.23108 | 78.44933 | 1982 ft | 29 kts | 90° |
| 2026-04-23 05:32 | 17.23112 | 78.45151 | 1986 ft | 30 kts | 89° |
| 2026-04-23 05:32 | 17.23099 | 78.45298 | 1982 ft | 13 kts | 128° |
| 2026-04-23 05:33 | 17.23037 | 78.45319 | 1983 ft | 4 kts | 180° |
| 2026-04-23 05:33 | 17.23003 | 78.45313 | 1985 ft | 5 kts | 204° |
| 2026-04-23 05:33 | 17.22969 | 78.45293 | 1983 ft | 7 kts | 213° |
| 2026-04-23 05:33 | 17.22918 | 78.45220 | 1983 ft | 17 kts | 252° |
| 2026-04-23 05:34 | 17.22906 | 78.45072 | 1983 ft | 39 kts | 269° |
| 2026-04-23 05:34 | 17.22905 | 78.44483 | 1982 ft | 123 kts | 269° |
| 2026-04-23 05:34 | 17.22880 | 78.43341 | 2056 ft | 182 kts | 270° |
| 2026-04-23 05:34 | 17.22849 | 78.41946 | 2522 ft | 200 kts | 269° |
| 2026-04-23 05:35 | 17.22823 | 78.40484 | 3331 ft | 200 kts | 270° |
| 2026-04-23 05:35 | 17.22846 | 78.39119 | 3620 ft | 181 kts | 273° |
| 2026-04-23 05:35 | 17.22960 | 78.37674 | 2656 ft | 217 kts | 277° |
| 2026-04-23 05:35 | 17.22856 | 78.36248 | 2973 ft | 197 kts | 253° |
| 2026-04-23 05:36 | 17.22197 | 78.34970 | 2534 ft | 204 kts | 229° |
| 2026-04-23 05:36 | 17.21125 | 78.34069 | 2350 ft | 201 kts | 209° |
| 2026-04-23 05:36 | 17.19866 | 78.33642 | 2609 ft | 193 kts | 178° |
| 2026-04-23 05:36 | 17.18648 | 78.34207 | 2980 ft | 201 kts | 130° |
| 2026-04-23 05:37 | 17.18090 | 78.35571 | 3499 ft | 215 kts | 95° |
| 2026-04-23 05:37 | 17.18356 | 78.37114 | 4001 ft | 221 kts | 62° |
| 2026-04-23 05:37 | 17.19406 | 78.38276 | 4506 ft | 225 kts | 29° |
| 2026-04-23 05:37 | 17.20908 | 78.38673 | 5011 ft | 226 kts | 356° |
| 2026-04-23 05:38 | 17.22397 | 78.38222 | 5517 ft | 228 kts | 336° |
| 2026-04-23 05:38 | 17.23947 | 78.37910 | 5996 ft | 230 kts | 5° |
| 2026-04-23 05:38 | 17.25430 | 78.38518 | 6474 ft | 233 kts | 38° |
| 2026-04-23 05:38 | 17.26378 | 78.39873 | 6962 ft | 234 kts | 70° |
| 2026-04-23 05:39 | 17.26493 | 78.41560 | 7452 ft | 235 kts | 102° |
| 2026-04-23 05:39 | 17.25741 | 78.43039 | 7942 ft | 237 kts | 133° |
| 2026-04-23 05:39 | 17.24318 | 78.43901 | 8427 ft | 241 kts | 165° |
| 2026-04-23 05:39 | 17.22642 | 78.43854 | 8941 ft | 246 kts | 197° |
| 2026-04-23 05:40 | 17.21199 | 78.42891 | 9471 ft | 251 kts | 227° |
| 2026-04-23 05:40 | 17.20383 | 78.41311 | 10004 ft | 254 kts | 252° |
| 2026-04-23 05:40 | 17.19636 | 78.39627 | 10519 ft | 257 kts | 231° |
| 2026-04-23 05:40 | 17.18247 | 78.38476 | 11028 ft | 255 kts | 201° |
| 2026-04-23 05:41 | 17.16516 | 78.38168 | 11527 ft | 253 kts | 173° |
| 2026-04-23 05:41 | 17.14754 | 78.38380 | 12079 ft | 257 kts | 172° |
| 2026-04-23 05:41 | 17.13005 | 78.38639 | 12569 ft | 256 kts | 157° |
| 2026-04-23 05:41 | 17.11587 | 78.39692 | 13064 ft | 250 kts | 125° |
| 2026-04-23 05:42 | 17.10873 | 78.41327 | 13596 ft | 248 kts | 100° |
| 2026-04-23 05:42 | 17.10674 | 78.42508 | 13936 ft | 250 kts | 99° |
| 2026-04-23 05:42 | 17.10188 | 78.44273 | 14401 ft | 255 kts | 108° |
| 2026-04-23 05:42 | 17.09546 | 78.46016 | 14875 ft | 259 kts | 111° |
| 2026-04-23 05:43 | 17.08808 | 78.47747 | 15359 ft | 262 kts | 114° |
| 2026-04-23 05:43 | 17.07704 | 78.50023 | 16018 ft | 267 kts | 117° |
| 2026-04-23 05:43 | 17.06800 | 78.51734 | 16523 ft | 271 kts | 119° |
| 2026-04-23 05:43 | 17.06161 | 78.52899 | 16872 ft | 274 kts | 120° |
| 2026-04-23 05:44 | 17.05197 | 78.54615 | 17399 ft | 278 kts | 121° |
| 2026-04-23 05:44 | 17.04196 | 78.56368 | 17943 ft | 282 kts | 122° |
| 2026-04-23 05:44 | 17.03176 | 78.58137 | 18457 ft | 286 kts | 122° |
| 2026-04-23 05:44 | 17.02117 | 78.59930 | 18633 ft | 288 kts | 126° |
| 2026-04-23 05:45 | 17.00755 | 78.61403 | 18674 ft | 285 kts | 140° |
| 2026-04-23 05:45 | 16.99266 | 78.62777 | 18690 ft | 286 kts | 140° |
| 2026-04-23 05:45 | 16.97780 | 78.64166 | 18688 ft | 286 kts | 140° |
| 2026-04-23 05:45 | 16.96299 | 78.65553 | 18678 ft | 286 kts | 140° |
| 2026-04-23 05:46 | 16.94815 | 78.66948 | 18681 ft | 286 kts | 139° |
| 2026-04-23 05:46 | 16.93354 | 78.68323 | 18675 ft | 286 kts | 139° |
| 2026-04-23 05:46 | 16.91873 | 78.69716 | 18669 ft | 286 kts | 139° |
| 2026-04-23 05:46 | 16.90391 | 78.71110 | 18672 ft | 286 kts | 139° |
| 2026-04-23 05:47 | 16.88914 | 78.72499 | 18672 ft | 286 kts | 139° |
| 2026-04-23 05:47 | 16.87438 | 78.73888 | 18670 ft | 286 kts | 139° |
| 2026-04-23 05:47 | 16.85958 | 78.75279 | 18668 ft | 286 kts | 139° |
| 2026-04-23 05:47 | 16.84496 | 78.76654 | 18665 ft | 286 kts | 139° |
| 2026-04-23 05:48 | 16.83013 | 78.78048 | 18667 ft | 286 kts | 139° |
| 2026-04-23 05:48 | 16.81536 | 78.79437 | 18661 ft | 286 kts | 139° |
| 2026-04-23 05:48 | 16.80057 | 78.80826 | 18662 ft | 286 kts | 139° |
| 2026-04-23 05:48 | 16.78573 | 78.82219 | 18655 ft | 286 kts | 139° |
| 2026-04-23 05:49 | 16.77116 | 78.83587 | 18658 ft | 286 kts | 139° |
| 2026-04-23 05:49 | 16.75634 | 78.84979 | 18652 ft | 286 kts | 139° |
| 2026-04-23 05:49 | 16.74155 | 78.86368 | 18657 ft | 286 kts | 139° |
| 2026-04-23 05:49 | 16.72677 | 78.87755 | 18652 ft | 286 kts | 139° |
| 2026-04-23 05:50 | 16.71194 | 78.89146 | 18651 ft | 286 kts | 139° |
| 2026-04-23 05:50 | 16.69717 | 78.90532 | 18645 ft | 286 kts | 139° |
| 2026-04-23 05:50 | 16.68232 | 78.91924 | 18645 ft | 286 kts | 139° |
| 2026-04-23 05:50 | 16.66771 | 78.93295 | 18649 ft | 286 kts | 139° |
| 2026-04-23 05:51 | 16.65292 | 78.94682 | 18644 ft | 286 kts | 139° |
| 2026-04-23 05:51 | 16.63810 | 78.96071 | 18641 ft | 286 kts | 139° |
| 2026-04-23 05:51 | 16.62327 | 78.97460 | 18645 ft | 286 kts | 139° |
| 2026-04-23 05:51 | 16.60846 | 78.98848 | 18640 ft | 286 kts | 139° |
| 2026-04-23 05:52 | 16.59364 | 79.00235 | 18636 ft | 286 kts | 139° |
| 2026-04-23 05:52 | 16.57898 | 79.01608 | 18636 ft | 286 kts | 139° |
| 2026-04-23 05:52 | 16.56418 | 79.02995 | 18630 ft | 286 kts | 139° |
| 2026-04-23 05:52 | 16.54934 | 79.04384 | 18637 ft | 286 kts | 139° |
| 2026-04-23 05:53 | 16.53446 | 79.05777 | 18518 ft | 286 kts | 139° |
| 2026-04-23 05:53 | 16.51960 | 79.07166 | 18565 ft | 293 kts | 139° |
| 2026-04-23 05:53 | 16.50395 | 79.08630 | 18832 ft | 310 kts | 139° |
| 2026-04-23 05:53 | 16.48767 | 79.10152 | 19122 ft | 327 kts | 140° |
| 2026-04-23 05:54 | 16.47030 | 79.11775 | 19381 ft | 344 kts | 140° |
| 2026-04-23 05:54 | 16.45202 | 79.13485 | 19622 ft | 361 kts | 140° |
| 2026-04-23 05:54 | 16.43291 | 79.15270 | 19855 ft | 377 kts | 140° |
| 2026-04-23 05:54 | 16.41303 | 79.17128 | 20228 ft | 385 kts | 140° |
| 2026-04-23 05:55 | 16.39302 | 79.18996 | 20879 ft | 386 kts | 141° |
| 2026-04-23 05:55 | 16.37321 | 79.20846 | 21432 ft | 389 kts | 141° |
| 2026-04-23 05:55 | 16.35294 | 79.22739 | 22019 ft | 392 kts | 141° |
| 2026-04-23 05:55 | 16.33253 | 79.24643 | 22599 ft | 394 kts | 142° |
| 2026-04-23 05:56 | 16.31202 | 79.26556 | 23157 ft | 397 kts | 142° |
| 2026-04-23 05:56 | 16.29134 | 79.28485 | 23671 ft | 400 kts | 142° |
| 2026-04-23 05:56 | 16.27081 | 79.30399 | 24128 ft | 402 kts | 143° |
| 2026-04-23 05:56 | 16.24989 | 79.32350 | 24586 ft | 404 kts | 143° |
| 2026-04-23 05:57 | 16.22885 | 79.34310 | 25036 ft | 407 kts | 143° |
| 2026-04-23 05:57 | 16.20767 | 79.36283 | 25483 ft | 409 kts | 143° |
| 2026-04-23 05:57 | 16.18638 | 79.38265 | 25929 ft | 412 kts | 143° |
| 2026-04-23 05:57 | 16.16493 | 79.40263 | 26362 ft | 414 kts | 143° |
| 2026-04-23 05:58 | 16.14360 | 79.42248 | 26790 ft | 417 kts | 144° |
| 2026-04-23 05:58 | 16.12193 | 79.44264 | 27215 ft | 419 kts | 144° |
| 2026-04-23 05:58 | 16.10012 | 79.46293 | 27638 ft | 422 kts | 144° |
| 2026-04-23 05:58 | 16.07817 | 79.48334 | 28028 ft | 424 kts | 144° |
| 2026-04-23 05:59 | 16.05604 | 79.50391 | 28439 ft | 427 kts | 144° |
| 2026-04-23 05:59 | 16.03384 | 79.52454 | 28837 ft | 429 kts | 144° |
| 2026-04-23 05:59 | 16.01151 | 79.54528 | 29213 ft | 432 kts | 144° |
| 2026-04-23 05:59 | 15.98925 | 79.56596 | 29595 ft | 434 kts | 144° |
| 2026-04-23 06:00 | 15.96668 | 79.58691 | 29972 ft | 436 kts | 144° |
| 2026-04-23 06:00 | 15.94391 | 79.60805 | 30278 ft | 439 kts | 145° |
| 2026-04-23 06:00 | 15.92104 | 79.62927 | 30605 ft | 441 kts | 145° |
| 2026-04-23 06:00 | 15.89810 | 79.65055 | 30842 ft | 444 kts | 145° |
| 2026-04-23 06:01 | 15.87498 | 79.67198 | 30849 ft | 444 kts | 145° |
| 2026-04-23 06:01 | 15.82880 | 79.71478 | 30852 ft | 444 kts | 145° |
| 2026-04-23 06:02 | 15.79825 | 79.74308 | 30843 ft | 444 kts | 144° |